createdAt,value
2019-05-26T00:00:16.589Z,0.00
2019-05-26T00:01:16.776Z,0.00
2019-05-26T00:02:16.944Z,0.00
2019-05-26T00:03:17.487Z,0.00
2019-05-26T00:04:17.299Z,0.00
2019-05-26T00:05:17.491Z,0.00
2019-05-26T00:06:18.481Z,0.00
2019-05-26T00:07:30.125Z,0.00
2019-05-26T00:08:20.009Z,0.00
2019-05-26T00:09:19.026Z,0.00
2019-05-26T00:10:18.426Z,0.00
2019-05-26T00:11:18.604Z,0.00
2019-05-26T00:12:18.808Z,0.00
2019-05-26T00:13:19.000Z,0.00
2019-05-26T00:14:19.166Z,0.00
2019-05-26T00:15:19.360Z,0.00
2019-05-26T00:16:19.594Z,0.00
2019-05-26T00:17:19.663Z,0.00
2019-05-26T00:18:19.829Z,0.00
2019-05-26T00:19:19.981Z,0.00
2019-05-26T00:20:20.115Z,0.00
2019-05-26T00:21:20.301Z,0.00
2019-05-26T00:22:20.479Z,0.00
2019-05-26T00:23:20.687Z,0.00
2019-05-26T00:24:20.853Z,0.00
2019-05-26T00:25:21.002Z,0.00
2019-05-26T00:26:21.165Z,0.00
2019-05-26T00:27:21.377Z,0.00
2019-05-26T00:28:22.478Z,0.00
2019-05-26T00:29:21.718Z,0.00
2019-05-26T00:30:21.857Z,0.00
2019-05-26T00:31:22.042Z,0.00
2019-05-26T00:32:22.202Z,0.00
2019-05-26T00:33:22.356Z,0.00
2019-05-26T00:34:22.526Z,0.00
2019-05-26T00:35:22.683Z,0.00
2019-05-26T00:36:22.838Z,0.00
2019-05-26T00:37:23.006Z,0.00
2019-05-26T00:38:23.161Z,0.00
2019-05-26T00:39:23.321Z,0.00
2019-05-26T00:40:23.456Z,0.00
2019-05-26T00:41:23.593Z,0.00
2019-05-26T00:42:23.759Z,0.00
2019-05-26T00:43:24.486Z,0.00
2019-05-26T00:44:24.138Z,0.00
2019-05-26T00:45:24.243Z,0.00
2019-05-26T00:46:24.497Z,0.00
2019-05-26T00:47:24.638Z,0.00
2019-05-26T00:48:24.793Z,0.00
2019-05-26T00:49:24.948Z,0.00
2019-05-26T00:50:25.493Z,0.00
2019-05-26T00:51:25.240Z,0.00
2019-05-26T00:52:25.360Z,0.00
2019-05-26T00:53:25.984Z,0.00
2019-05-26T00:54:25.729Z,0.00
2019-05-26T00:55:25.842Z,0.00
2019-05-26T00:56:25.967Z,0.00
2019-05-26T00:57:26.086Z,0.00
2019-05-26T00:58:26.993Z,0.00
2019-05-26T00:59:26.358Z,0.00
2019-05-26T01:00:26.498Z,0.00
2019-05-26T01:01:27.489Z,0.00
2019-05-26T01:02:27.483Z,0.00
2019-05-26T01:03:26.968Z,0.00
2019-05-26T01:04:27.497Z,0.00
2019-05-26T01:05:28.023Z,0.00
2019-05-26T01:06:27.388Z,0.00
2019-05-26T01:07:27.575Z,0.00
2019-05-26T01:08:28.480Z,0.00
2019-05-26T01:09:27.982Z,0.00
2019-05-26T01:10:28.143Z,0.00
2019-05-26T01:11:28.318Z,0.00
2019-05-26T01:12:28.465Z,0.00
2019-05-26T01:13:28.588Z,0.00
2019-05-26T01:14:28.738Z,0.00
2019-05-26T01:15:28.902Z,0.00
2019-05-26T01:16:29.087Z,0.00
2019-05-26T01:17:29.295Z,0.00
2019-05-26T01:18:29.380Z,0.00
2019-05-26T01:19:29.525Z,0.00
2019-05-26T01:20:29.686Z,0.00
2019-05-26T01:21:29.855Z,0.00
2019-05-26T01:22:30.980Z,0.00
2019-05-26T01:23:30.989Z,0.00
2019-05-26T01:24:30.376Z,0.00
2019-05-26T01:25:30.507Z,0.00
2019-05-26T01:26:30.655Z,0.00
2019-05-26T01:27:31.010Z,0.00
2019-05-26T01:28:31.038Z,0.00
2019-05-26T01:29:31.170Z,0.00
2019-05-26T01:30:31.298Z,0.00
2019-05-26T01:31:31.484Z,0.00
2019-05-26T01:32:31.625Z,0.00
2019-05-26T01:33:31.779Z,0.00
2019-05-26T01:34:31.897Z,0.00
2019-05-26T01:35:32.986Z,0.00
2019-05-26T01:36:32.501Z,0.00
2019-05-26T01:37:32.366Z,0.00
2019-05-26T01:38:33.504Z,0.00
2019-05-26T01:39:32.753Z,0.00
2019-05-26T01:40:32.865Z,0.00
2019-05-26T01:41:33.992Z,0.00
2019-05-26T01:42:33.233Z,0.00
2019-05-26T01:43:33.341Z,0.00
2019-05-26T01:44:33.471Z,0.00
2019-05-26T01:45:33.639Z,0.00
2019-05-26T01:46:33.763Z,0.00
2019-05-26T01:47:33.933Z,0.00
2019-05-26T01:48:34.068Z,0.00
2019-05-26T01:49:34.296Z,0.00
2019-05-26T01:50:34.498Z,0.00
2019-05-26T01:51:34.653Z,0.00
2019-05-26T01:52:34.838Z,0.00
2019-05-26T01:53:35.501Z,0.00
2019-05-26T01:54:35.148Z,0.00
2019-05-26T01:55:35.309Z,0.00
2019-05-26T01:56:35.478Z,0.00
2019-05-26T01:57:35.673Z,0.00
2019-05-26T01:58:35.859Z,0.00
2019-05-26T01:59:36.041Z,0.00
2019-05-26T02:00:36.214Z,0.00
2019-05-26T02:01:36.388Z,0.00
2019-05-26T02:02:36.547Z,0.00
2019-05-26T02:03:36.738Z,0.00
2019-05-26T02:04:37.497Z,0.00
2019-05-26T02:05:37.007Z,0.00
2019-05-26T02:06:37.151Z,0.00
2019-05-26T02:07:37.305Z,0.00
2019-05-26T02:08:39.726Z,0.00
2019-05-26T02:09:38.669Z,0.00
2019-05-26T02:10:37.816Z,0.00
2019-05-26T02:11:37.969Z,0.00
2019-05-26T02:12:38.176Z,0.00
2019-05-26T02:13:38.348Z,0.00
2019-05-26T02:14:38.549Z,0.00
2019-05-26T02:15:38.756Z,0.00
2019-05-26T02:16:39.504Z,0.00
2019-05-26T02:17:39.038Z,0.00
2019-05-26T02:18:39.500Z,0.00
2019-05-26T02:19:39.414Z,0.00
2019-05-26T02:20:40.580Z,0.00
2019-05-26T02:21:39.721Z,0.00
2019-05-26T02:22:39.896Z,0.00
2019-05-26T02:23:40.105Z,0.00
2019-05-26T02:24:40.291Z,0.00
2019-05-26T02:25:40.475Z,0.00
2019-05-26T02:26:40.683Z,0.00
2019-05-26T02:27:40.902Z,0.00
2019-05-26T02:28:41.066Z,0.00
2019-05-26T02:29:41.260Z,0.00
2019-05-26T02:30:41.435Z,0.00
2019-05-26T02:31:41.617Z,0.00
2019-05-26T02:32:42.800Z,0.00
2019-05-26T02:33:41.928Z,0.00
2019-05-26T02:34:42.091Z,0.00
2019-05-26T02:35:42.267Z,0.00
2019-05-26T02:36:42.431Z,0.00
2019-05-26T02:37:42.634Z,0.00
2019-05-26T02:38:59.756Z,0.00
2019-05-26T02:39:45.505Z,0.00
2019-05-26T02:40:43.119Z,0.00
2019-05-26T02:41:43.327Z,0.00
2019-05-26T02:42:43.483Z,0.00
2019-05-26T02:43:43.680Z,0.00
2019-05-26T02:44:44.883Z,0.00
2019-05-26T02:45:44.038Z,0.00
2019-05-26T02:46:44.221Z,0.00
2019-05-26T02:47:44.399Z,0.00
2019-05-26T02:48:44.571Z,0.00
2019-05-26T02:49:44.756Z,0.00
2019-05-26T02:50:44.913Z,0.00
2019-05-26T02:51:45.086Z,0.00
2019-05-26T02:52:45.260Z,0.00
2019-05-26T02:53:45.433Z,0.00
2019-05-26T02:54:46.015Z,0.00
2019-05-26T02:55:45.756Z,0.00
2019-05-26T02:56:45.901Z,0.00
2019-05-26T02:57:46.064Z,0.00
2019-05-26T02:58:46.221Z,0.00
2019-05-26T02:59:46.372Z,0.00
2019-05-26T03:00:46.611Z,0.00
2019-05-26T03:02:02.075Z,0.00
2019-05-26T03:02:48.901Z,0.00
2019-05-26T03:03:47.128Z,0.00
2019-05-26T03:04:47.313Z,0.00
2019-05-26T03:05:47.526Z,0.00
2019-05-26T03:06:47.746Z,0.00
2019-05-26T03:07:47.945Z,0.00
2019-05-26T03:08:48.143Z,0.00
2019-05-26T03:09:48.338Z,0.00
2019-05-26T03:10:48.556Z,0.00
2019-05-26T03:11:49.498Z,0.00
2019-05-26T03:12:48.907Z,0.00
2019-05-26T03:13:49.048Z,0.00
2019-05-26T03:14:49.182Z,0.00
2019-05-26T03:15:49.348Z,0.00
2019-05-26T03:16:49.492Z,0.00
2019-05-26T03:17:49.678Z,0.00
2019-05-26T03:18:49.845Z,0.00
2019-05-26T03:19:50.018Z,0.00
2019-05-26T03:20:51.191Z,0.00
2019-05-26T03:21:51.002Z,0.00
2019-05-26T03:22:50.489Z,0.00
2019-05-26T03:23:50.652Z,0.00
2019-05-26T03:24:50.791Z,0.00
2019-05-26T03:25:51.506Z,0.00
2019-05-26T03:26:51.528Z,0.00
2019-05-26T03:27:51.281Z,0.00
2019-05-26T03:28:51.998Z,5.62
2019-05-26T03:29:51.632Z,5.62
2019-05-26T03:30:51.901Z,5.62
2019-05-26T03:31:51.907Z,5.62
2019-05-26T03:32:52.049Z,5.62
2019-05-26T03:33:52.168Z,5.62
2019-05-26T03:34:52.295Z,5.62
2019-05-26T03:35:52.461Z,5.62
2019-05-26T03:36:52.557Z,5.62
2019-05-26T03:37:52.780Z,5.62
2019-05-26T03:38:53.014Z,5.62
2019-05-26T03:39:53.234Z,5.62
2019-05-26T03:40:53.386Z,5.62
2019-05-26T03:41:53.557Z,11.25
2019-05-26T03:42:53.685Z,11.25
2019-05-26T03:43:53.793Z,11.25
2019-05-26T03:44:53.916Z,11.25
2019-05-26T03:45:54.046Z,11.25
2019-05-26T03:46:54.207Z,11.25
2019-05-26T03:47:54.365Z,11.25
2019-05-26T03:48:54.521Z,11.25
2019-05-26T03:49:54.656Z,11.25
2019-05-26T03:50:54.784Z,11.25
2019-05-26T03:51:54.935Z,11.25
2019-05-26T03:52:55.135Z,11.25
2019-05-26T03:53:56.007Z,11.25
2019-05-26T03:54:55.396Z,11.25
2019-05-26T03:55:55.542Z,16.88
2019-05-26T03:56:55.717Z,16.88
2019-05-26T03:57:55.863Z,16.88
2019-05-26T03:58:56.066Z,16.88
2019-05-26T03:59:57.009Z,16.88
2019-05-26T04:00:56.423Z,16.88
2019-05-26T04:01:57.867Z,16.88
2019-05-26T04:02:57.726Z,16.88
2019-05-26T04:03:56.903Z,16.88
2019-05-26T04:04:57.532Z,16.88
2019-05-26T04:05:57.321Z,16.88
2019-05-26T04:06:58.488Z,16.88
2019-05-26T04:07:57.638Z,16.88
2019-05-26T04:08:57.833Z,22.50
2019-05-26T04:10:04.829Z,22.50
2019-05-26T04:11:00.154Z,22.50
2019-05-26T04:11:59.009Z,22.50
2019-05-26T04:12:58.418Z,28.12
2019-05-26T04:13:59.014Z,28.12
2019-05-26T04:14:58.826Z,28.12
2019-05-26T04:15:59.012Z,28.12
2019-05-26T04:16:59.176Z,28.12
2019-05-26T04:18:00.367Z,28.12
2019-05-26T04:18:59.543Z,28.12
2019-05-26T04:19:59.732Z,33.75
2019-05-26T04:20:59.911Z,33.75
2019-05-26T04:22:01.009Z,33.75
2019-05-26T04:23:00.262Z,33.75
2019-05-26T04:24:00.433Z,33.75
2019-05-26T04:25:00.583Z,33.75
2019-05-26T04:26:00.788Z,39.38
2019-05-26T04:27:01.518Z,39.38
2019-05-26T04:28:01.172Z,45.00
2019-05-26T04:29:02.340Z,45.00
2019-05-26T04:30:01.522Z,39.38
2019-05-26T04:31:02.020Z,39.38
2019-05-26T04:32:02.386Z,39.38
2019-05-26T04:33:03.033Z,45.00
2019-05-26T04:34:02.172Z,45.00
2019-05-26T04:35:02.322Z,50.62
2019-05-26T04:36:02.517Z,56.25
2019-05-26T04:37:03.512Z,67.50
2019-05-26T04:38:03.025Z,73.12
2019-05-26T04:39:03.060Z,73.12
2019-05-26T04:40:22.459Z,78.75
2019-05-26T04:41:04.344Z,78.75
2019-05-26T04:42:03.502Z,84.38
2019-05-26T04:43:03.699Z,84.38
2019-05-26T04:44:03.876Z,84.38
2019-05-26T04:45:04.048Z,90.00
2019-05-26T04:46:04.270Z,90.00
2019-05-26T04:47:04.439Z,90.00
2019-05-26T04:48:04.575Z,90.00
2019-05-26T04:49:04.818Z,90.00
2019-05-26T04:50:04.962Z,95.62
2019-05-26T04:51:06.014Z,95.62
2019-05-26T04:52:05.321Z,101.25
2019-05-26T04:53:07.262Z,101.25
2019-05-26T04:54:06.709Z,106.88
2019-05-26T04:55:05.850Z,118.12
2019-05-26T04:56:06.001Z,118.12
2019-05-26T04:57:06.170Z,123.75
2019-05-26T04:58:06.327Z,129.38
2019-05-26T04:59:06.459Z,135.00
2019-05-26T05:00:06.607Z,129.38
2019-05-26T05:01:06.734Z,123.75
2019-05-26T05:02:06.913Z,118.12
2019-05-26T05:03:07.086Z,118.12
2019-05-26T05:04:07.229Z,118.12
2019-05-26T05:05:22.017Z,118.12
2019-05-26T05:06:07.624Z,123.75
2019-05-26T05:07:08.522Z,123.75
2019-05-26T05:08:08.037Z,129.38
2019-05-26T05:09:08.205Z,129.38
2019-05-26T05:10:08.345Z,135.00
2019-05-26T05:11:08.496Z,135.00
2019-05-26T05:12:08.646Z,135.00
2019-05-26T05:13:08.813Z,135.00
2019-05-26T05:14:08.977Z,140.62
2019-05-26T05:15:09.111Z,146.25
2019-05-26T05:16:09.241Z,151.88
2019-05-26T05:17:09.403Z,151.88
2019-05-26T05:18:09.535Z,157.50
2019-05-26T05:19:09.693Z,157.50
2019-05-26T05:20:09.847Z,157.50
2019-05-26T05:21:10.520Z,157.50
2019-05-26T05:22:10.124Z,163.12
2019-05-26T05:23:10.266Z,168.75
2019-05-26T05:24:10.426Z,174.38
2019-05-26T05:25:15.010Z,180.00
2019-05-26T05:26:11.744Z,174.38
2019-05-26T05:27:10.856Z,174.38
2019-05-26T05:28:11.007Z,180.00
2019-05-26T05:29:11.175Z,185.62
2019-05-26T05:30:11.340Z,191.25
2019-05-26T05:31:11.487Z,191.25
2019-05-26T05:32:12.531Z,196.88
2019-05-26T05:33:11.772Z,208.12
2019-05-26T05:34:11.959Z,208.12
2019-05-26T05:35:12.120Z,213.75
2019-05-26T05:36:12.292Z,225.00
2019-05-26T05:37:12.451Z,213.75
2019-05-26T05:38:12.648Z,225.00
2019-05-26T05:39:13.535Z,230.62
2019-05-26T05:40:13.053Z,230.62
2019-05-26T05:41:13.088Z,202.50
2019-05-26T05:42:14.023Z,180.00
2019-05-26T05:43:13.424Z,180.00
2019-05-26T05:44:14.524Z,191.25
2019-05-26T05:45:13.824Z,202.50
2019-05-26T05:46:14.017Z,202.50
2019-05-26T05:47:14.225Z,202.50
2019-05-26T05:48:14.414Z,202.50
2019-05-26T05:49:14.611Z,202.50
2019-05-26T05:50:14.819Z,208.12
2019-05-26T05:51:15.519Z,208.12
2019-05-26T05:52:15.202Z,225.00
2019-05-26T05:53:15.370Z,208.12
2019-05-26T05:54:15.530Z,202.50
2019-05-26T05:55:16.530Z,208.12
2019-05-26T05:56:16.518Z,219.38
2019-05-26T05:57:16.070Z,208.12
2019-05-26T05:58:17.048Z,196.88
2019-05-26T05:59:16.417Z,202.50
2019-05-26T06:00:16.595Z,208.12
2019-05-26T06:01:16.782Z,213.75
2019-05-26T06:02:16.963Z,213.75
2019-05-26T06:03:18.720Z,213.75
2019-05-26T06:04:19.016Z,213.75
2019-05-26T06:05:18.506Z,213.75
2019-05-26T06:06:17.782Z,219.38
2019-05-26T06:07:17.937Z,219.38
2019-05-26T06:08:18.203Z,219.38
2019-05-26T06:09:18.324Z,219.38
2019-05-26T06:10:18.483Z,225.00
2019-05-26T06:11:18.661Z,230.62
2019-05-26T06:12:18.815Z,241.88
2019-05-26T06:13:19.524Z,258.75
2019-05-26T06:14:19.239Z,258.75
2019-05-26T06:15:19.285Z,258.75
2019-05-26T06:16:19.466Z,258.75
2019-05-26T06:17:19.652Z,264.38
2019-05-26T06:18:19.834Z,264.38
2019-05-26T06:19:20.032Z,264.38
2019-05-26T06:20:20.213Z,264.38
2019-05-26T06:21:21.043Z,264.38
2019-05-26T06:22:20.550Z,264.38
2019-05-26T06:23:20.720Z,270.00
2019-05-26T06:24:20.899Z,258.75
2019-05-26T06:25:22.042Z,258.75
2019-05-26T06:26:21.199Z,264.38
2019-05-26T06:27:21.377Z,275.62
2019-05-26T06:28:21.587Z,281.25
2019-05-26T06:29:22.609Z,286.88
2019-05-26T06:30:21.889Z,281.25
2019-05-26T06:31:22.085Z,303.75
2019-05-26T06:32:22.264Z,303.75
2019-05-26T06:33:22.487Z,298.12
2019-05-26T06:34:22.702Z,286.88
2019-05-26T06:35:23.546Z,281.25
2019-05-26T06:36:23.075Z,286.88
2019-05-26T06:37:23.221Z,298.12
2019-05-26T06:38:23.390Z,303.75
2019-05-26T06:39:23.574Z,303.75
2019-05-26T06:40:23.762Z,303.75
2019-05-26T06:41:32.983Z,298.12
2019-05-26T06:42:26.190Z,298.12
2019-05-26T06:43:24.554Z,292.50
2019-05-26T06:44:24.441Z,292.50
2019-05-26T06:45:24.575Z,286.88
2019-05-26T06:46:24.694Z,303.75
2019-05-26T06:47:24.836Z,309.38
2019-05-26T06:48:26.881Z,315.00
2019-05-26T06:49:26.142Z,309.38
2019-05-26T06:50:25.263Z,309.38
2019-05-26T06:51:25.402Z,298.12
2019-05-26T06:52:25.532Z,275.62
2019-05-26T06:53:25.680Z,275.62
2019-05-26T06:54:25.833Z,275.62
2019-05-26T06:55:25.970Z,270.00
2019-05-26T06:56:26.117Z,275.62
2019-05-26T06:57:26.293Z,275.62
2019-05-26T06:58:26.496Z,275.62
2019-05-26T06:59:27.689Z,270.00
2019-05-26T07:00:26.819Z,275.62
2019-05-26T07:01:26.985Z,275.62
2019-05-26T07:02:27.145Z,270.00
2019-05-26T07:03:27.323Z,270.00
2019-05-26T07:04:27.466Z,270.00
2019-05-26T07:05:27.649Z,264.38
2019-05-26T07:06:27.836Z,270.00
2019-05-26T07:07:27.987Z,275.62
2019-05-26T07:08:28.196Z,286.88
2019-05-26T07:09:28.371Z,286.88
2019-05-26T07:10:28.562Z,292.50
2019-05-26T07:11:28.703Z,298.12
2019-05-26T07:12:28.860Z,303.75
2019-05-26T07:13:29.042Z,303.75
2019-05-26T07:14:29.213Z,309.38
2019-05-26T07:15:29.561Z,309.38
2019-05-26T07:16:38.171Z,298.12
2019-05-26T07:17:31.812Z,303.75
2019-05-26T07:18:30.038Z,303.75
2019-05-26T07:19:30.171Z,309.38
2019-05-26T07:20:30.586Z,315.00
2019-05-26T07:21:30.491Z,326.25
2019-05-26T07:22:30.652Z,326.25
2019-05-26T07:23:30.898Z,337.50
2019-05-26T07:24:31.037Z,331.88
2019-05-26T07:25:31.210Z,337.50
2019-05-26T07:26:31.389Z,326.25
2019-05-26T07:27:32.052Z,331.88
2019-05-26T07:28:31.692Z,354.38
2019-05-26T07:29:31.865Z,365.62
2019-05-26T07:30:32.057Z,365.62
2019-05-26T07:31:32.288Z,393.75
2019-05-26T07:32:32.488Z,399.38
2019-05-26T07:33:32.686Z,393.75
2019-05-26T07:34:32.883Z,388.12
2019-05-26T07:35:33.370Z,382.50
2019-05-26T07:36:34.216Z,382.50
2019-05-26T07:37:33.352Z,376.88
2019-05-26T07:38:33.507Z,382.50
2019-05-26T07:39:33.695Z,382.50
2019-05-26T07:40:33.877Z,393.75
2019-05-26T07:41:34.112Z,399.38
2019-05-26T07:42:34.305Z,393.75
2019-05-26T07:43:34.488Z,393.75
2019-05-26T07:44:34.685Z,382.50
2019-05-26T07:45:35.079Z,382.50
2019-05-26T07:46:35.229Z,360.00
2019-05-26T07:47:35.297Z,354.38
2019-05-26T07:48:36.171Z,343.12
2019-05-26T07:49:36.656Z,309.38
2019-05-26T07:50:35.803Z,281.25
2019-05-26T07:51:36.020Z,315.00
2019-05-26T07:52:36.244Z,309.38
2019-05-26T07:53:36.436Z,326.25
2019-05-26T07:54:36.656Z,337.50
2019-05-26T07:55:36.851Z,348.75
2019-05-26T07:56:37.068Z,348.75
2019-05-26T07:57:37.290Z,343.12
2019-05-26T07:58:38.067Z,343.12
2019-05-26T07:59:37.618Z,348.75
2019-05-26T08:00:37.806Z,348.75
2019-05-26T08:01:38.023Z,348.75
2019-05-26T08:02:38.238Z,348.75
2019-05-26T08:03:38.414Z,343.12
2019-05-26T08:04:38.600Z,348.75
2019-05-26T08:05:38.775Z,360.00
2019-05-26T08:06:38.927Z,371.25
2019-05-26T08:07:39.104Z,365.62
2019-05-26T08:08:39.283Z,382.50
2019-05-26T08:09:39.461Z,388.12
2019-05-26T08:10:39.614Z,382.50
2019-05-26T08:11:39.775Z,354.38
2019-05-26T08:12:39.945Z,320.62
2019-05-26T08:13:40.115Z,320.62
2019-05-26T08:14:40.288Z,309.38
2019-05-26T08:15:40.457Z,286.88
2019-05-26T08:16:40.606Z,292.50
2019-05-26T08:17:40.796Z,348.75
2019-05-26T08:18:40.996Z,326.25
2019-05-26T08:19:41.213Z,320.62
2019-05-26T08:20:42.081Z,326.25
2019-05-26T08:21:41.639Z,376.88
2019-05-26T08:22:42.568Z,405.00
2019-05-26T08:23:41.963Z,399.38
2019-05-26T08:24:43.075Z,393.75
2019-05-26T08:25:42.412Z,388.12
2019-05-26T08:26:42.498Z,382.50
2019-05-26T08:27:42.713Z,388.12
2019-05-26T08:28:42.900Z,376.88
2019-05-26T08:29:43.576Z,382.50
2019-05-26T08:30:43.255Z,371.25
2019-05-26T08:31:43.450Z,371.25
2019-05-26T08:32:43.679Z,382.50
2019-05-26T08:33:43.892Z,388.12
2019-05-26T08:34:45.073Z,388.12
2019-05-26T08:35:44.216Z,393.75
2019-05-26T08:36:44.403Z,393.75
2019-05-26T08:37:45.088Z,393.75
2019-05-26T08:38:44.755Z,405.00
2019-05-26T08:39:48.254Z,393.75
2019-05-26T08:40:45.593Z,382.50
2019-05-26T08:41:46.083Z,376.88
2019-05-26T08:42:45.495Z,371.25
2019-05-26T08:43:45.685Z,365.62
2019-05-26T08:44:45.867Z,371.25
2019-05-26T08:45:46.035Z,371.25
2019-05-26T08:46:46.230Z,365.62
2019-05-26T08:47:46.450Z,371.25
2019-05-26T08:48:46.650Z,371.25
2019-05-26T08:49:46.792Z,388.12
2019-05-26T08:50:46.973Z,388.12
2019-05-26T08:51:47.201Z,388.12
2019-05-26T08:52:47.586Z,382.50
2019-05-26T08:53:47.614Z,382.50
2019-05-26T08:54:47.755Z,382.50
2019-05-26T08:55:47.942Z,376.88
2019-05-26T08:56:48.117Z,382.50
2019-05-26T08:57:48.326Z,382.50
2019-05-26T08:58:48.594Z,382.50
2019-05-26T08:59:49.584Z,371.25
2019-05-26T09:00:48.868Z,376.88
2019-05-26T09:01:49.046Z,376.88
2019-05-26T09:02:49.607Z,376.88
2019-05-26T09:03:50.086Z,376.88
2019-05-26T09:04:50.084Z,382.50
2019-05-26T09:05:49.743Z,388.12
2019-05-26T09:06:50.582Z,376.88
2019-05-26T09:07:50.165Z,382.50
2019-05-26T09:08:50.345Z,382.50
2019-05-26T09:09:50.536Z,382.50
2019-05-26T09:10:50.710Z,376.88
2019-05-26T09:11:50.899Z,376.88
2019-05-26T09:13:00.735Z,376.88
2019-05-26T09:13:53.225Z,376.88
2019-05-26T09:14:52.080Z,382.50
2019-05-26T09:15:51.485Z,376.88
2019-05-26T09:16:52.585Z,382.50
2019-05-26T09:17:52.600Z,388.12
2019-05-26T09:18:52.105Z,388.12
2019-05-26T09:19:52.173Z,388.12
2019-05-26T09:20:52.316Z,388.12
2019-05-26T09:21:52.515Z,388.12
2019-05-26T09:22:53.594Z,393.75
2019-05-26T09:23:52.875Z,399.38
2019-05-26T09:24:53.020Z,405.00
2019-05-26T09:25:53.184Z,421.88
2019-05-26T09:26:53.362Z,438.75
2019-05-26T09:27:53.508Z,466.88
2019-05-26T09:28:53.667Z,472.50
2019-05-26T09:29:53.867Z,483.75
2019-05-26T09:30:54.006Z,511.88
2019-05-26T09:31:54.312Z,556.88
2019-05-26T09:32:54.475Z,613.12
2019-05-26T09:33:54.615Z,669.38
2019-05-26T09:34:54.761Z,720.00
2019-05-26T09:35:54.959Z,770.62
2019-05-26T09:36:57.061Z,652.50
2019-05-26T09:37:56.369Z,703.12
2019-05-26T09:38:56.095Z,714.38
2019-05-26T09:39:56.106Z,708.75
2019-05-26T09:40:55.756Z,798.75
2019-05-26T09:41:56.592Z,821.25
2019-05-26T09:42:56.093Z,675.00
2019-05-26T09:43:56.226Z,607.50
2019-05-26T09:44:56.371Z,568.12
2019-05-26T09:45:56.553Z,562.50
2019-05-26T09:46:57.600Z,545.62
2019-05-26T09:47:56.865Z,540.00
2019-05-26T09:49:00.627Z,495.00
2019-05-26T09:49:57.217Z,478.12
2019-05-26T09:50:57.435Z,472.50
2019-05-26T09:51:57.543Z,455.62
2019-05-26T09:52:57.730Z,450.00
2019-05-26T09:54:01.727Z,444.38
2019-05-26T09:54:59.111Z,450.00
2019-05-26T09:55:59.099Z,444.38
2019-05-26T09:56:58.399Z,433.12
2019-05-26T09:57:59.100Z,433.12
2019-05-26T09:58:58.759Z,421.88
2019-05-26T09:59:58.982Z,410.62
2019-05-26T10:00:59.156Z,410.62
2019-05-26T10:01:59.348Z,399.38
2019-05-26T10:02:59.539Z,393.75
2019-05-26T10:03:59.706Z,388.12
2019-05-26T10:05:00.609Z,382.50
2019-05-26T10:06:00.001Z,382.50
2019-05-26T10:07:01.111Z,388.12
2019-05-26T10:08:00.402Z,399.38
2019-05-26T10:09:00.564Z,405.00
2019-05-26T10:10:00.757Z,405.00
2019-05-26T10:11:00.920Z,393.75
2019-05-26T10:12:01.071Z,376.88
2019-05-26T10:13:01.265Z,365.62
2019-05-26T10:14:01.426Z,365.62
2019-05-26T10:15:01.663Z,371.25
2019-05-26T10:16:01.843Z,382.50
2019-05-26T10:17:01.999Z,405.00
2019-05-26T10:18:02.202Z,421.88
2019-05-26T10:19:02.396Z,433.12
2019-05-26T10:20:02.568Z,444.38
2019-05-26T10:21:02.747Z,461.25
2019-05-26T10:22:03.618Z,466.88
2019-05-26T10:23:03.127Z,478.12
2019-05-26T10:24:03.308Z,472.50
2019-05-26T10:25:03.489Z,461.25
2019-05-26T10:26:03.676Z,455.62
2019-05-26T10:27:03.854Z,461.25
2019-05-26T10:28:04.048Z,472.50
2019-05-26T10:29:04.248Z,466.88
2019-05-26T10:30:05.185Z,438.75
2019-05-26T10:31:04.591Z,416.25
2019-05-26T10:32:04.776Z,410.62
2019-05-26T10:33:04.945Z,399.38
2019-05-26T10:34:05.088Z,388.12
2019-05-26T10:35:05.249Z,371.25
2019-05-26T10:36:05.443Z,348.75
2019-05-26T10:37:05.585Z,331.88
2019-05-26T10:38:06.626Z,315.00
2019-05-26T10:39:05.869Z,309.38
2019-05-26T10:40:06.137Z,315.00
2019-05-26T10:41:06.187Z,326.25
2019-05-26T10:42:06.388Z,331.88
2019-05-26T10:43:06.563Z,326.25
2019-05-26T10:44:06.713Z,309.38
2019-05-26T10:45:06.874Z,292.50
2019-05-26T10:46:07.035Z,281.25
2019-05-26T10:47:08.201Z,264.38
2019-05-26T10:48:07.341Z,253.12
2019-05-26T10:49:08.119Z,247.50
2019-05-26T10:50:07.710Z,247.50
2019-05-26T10:51:08.625Z,241.88
2019-05-26T10:52:07.998Z,247.50
2019-05-26T10:53:08.142Z,258.75
2019-05-26T10:54:08.279Z,270.00
2019-05-26T10:55:08.554Z,281.25
2019-05-26T10:56:08.741Z,286.88
2019-05-26T10:57:08.887Z,286.88
2019-05-26T10:58:09.034Z,286.88
2019-05-26T10:59:09.199Z,286.88
2019-05-26T11:00:09.362Z,286.88
2019-05-26T11:01:09.525Z,281.25
2019-05-26T11:02:09.645Z,281.25
2019-05-26T11:03:09.832Z,298.12
2019-05-26T11:04:10.632Z,315.00
2019-05-26T11:05:10.144Z,331.88
2019-05-26T11:06:10.344Z,331.88
2019-05-26T11:07:10.495Z,326.25
2019-05-26T11:08:10.629Z,326.25
2019-05-26T11:09:10.790Z,331.88
2019-05-26T11:10:11.632Z,331.88
2019-05-26T11:11:11.161Z,331.88
2019-05-26T11:12:12.126Z,320.62
2019-05-26T11:13:12.136Z,303.75
2019-05-26T11:14:11.653Z,292.50
2019-05-26T11:15:11.821Z,292.50
2019-05-26T11:16:12.015Z,292.50
2019-05-26T11:17:12.187Z,298.12
2019-05-26T11:18:12.340Z,298.12
2019-05-26T11:19:12.507Z,303.75
2019-05-26T11:20:13.148Z,309.38
2019-05-26T11:21:12.895Z,320.62
2019-05-26T11:22:13.151Z,326.25
2019-05-26T11:23:13.216Z,326.25
2019-05-26T11:24:13.432Z,303.75
2019-05-26T11:25:13.604Z,286.88
2019-05-26T11:26:13.767Z,275.62
2019-05-26T11:27:14.648Z,270.00
2019-05-26T11:28:15.103Z,264.38
2019-05-26T11:29:14.236Z,264.38
2019-05-26T11:30:14.416Z,270.00
2019-05-26T11:31:14.596Z,292.50
2019-05-26T11:32:14.807Z,320.62
2019-05-26T11:33:14.981Z,337.50
2019-05-26T11:34:15.170Z,343.12
2019-05-26T11:35:15.331Z,360.00
2019-05-26T11:36:15.535Z,376.88
2019-05-26T11:37:15.740Z,393.75
2019-05-26T11:38:15.917Z,410.62
2019-05-26T11:39:16.076Z,427.50
2019-05-26T11:40:16.254Z,421.88
2019-05-26T11:41:17.157Z,416.25
2019-05-26T11:42:16.701Z,410.62
2019-05-26T11:43:17.593Z,410.62
2019-05-26T11:44:18.523Z,416.25
2019-05-26T11:45:17.258Z,416.25
2019-05-26T11:46:17.595Z,416.25
2019-05-26T11:47:17.612Z,410.62
2019-05-26T11:48:17.801Z,410.62
2019-05-26T11:49:17.940Z,399.38
2019-05-26T11:50:18.087Z,376.88
2019-05-26T11:51:18.248Z,348.75
2019-05-26T11:52:20.345Z,343.12
2019-05-26T11:53:20.141Z,343.12
2019-05-26T11:54:18.745Z,343.12
2019-05-26T11:55:18.924Z,343.12
2019-05-26T11:56:19.075Z,348.75
2019-05-26T11:57:19.221Z,348.75
2019-05-26T11:58:19.653Z,354.38
2019-05-26T11:59:19.558Z,354.38
2019-05-26T12:00:19.727Z,354.38
2019-05-26T12:01:22.947Z,360.00
2019-05-26T12:02:21.003Z,382.50
2019-05-26T12:03:21.172Z,382.50
2019-05-26T12:04:22.189Z,376.88
2019-05-26T12:05:20.447Z,388.12
2019-05-26T12:06:20.607Z,410.62
2019-05-26T12:07:20.777Z,455.62
2019-05-26T12:08:20.959Z,500.62
2019-05-26T12:09:21.159Z,528.75
2019-05-26T12:10:21.357Z,517.50
2019-05-26T12:11:21.511Z,523.12
2019-05-26T12:12:21.689Z,545.62
2019-05-26T12:13:21.867Z,585.00
2019-05-26T12:14:34.387Z,601.88
2019-05-26T12:15:24.214Z,590.62
2019-05-26T12:16:22.362Z,573.75
2019-05-26T12:17:22.550Z,551.25
2019-05-26T12:18:22.737Z,528.75
2019-05-26T12:19:22.945Z,489.38
2019-05-26T12:20:23.645Z,444.38
2019-05-26T12:21:23.299Z,405.00
2019-05-26T12:22:23.448Z,399.38
2019-05-26T12:23:23.615Z,416.25
2019-05-26T12:24:23.780Z,450.00
2019-05-26T12:25:23.978Z,433.12
2019-05-26T12:26:24.127Z,410.62
2019-05-26T12:27:24.287Z,393.75
2019-05-26T12:28:24.447Z,405.00
2019-05-26T12:29:25.153Z,393.75
2019-05-26T12:30:24.794Z,393.75
2019-05-26T12:31:24.929Z,388.12
2019-05-26T12:32:25.077Z,393.75
2019-05-26T12:33:25.220Z,410.62
2019-05-26T12:34:25.345Z,438.75
2019-05-26T12:35:25.613Z,472.50
2019-05-26T12:36:26.657Z,495.00
2019-05-26T12:37:26.660Z,511.88
2019-05-26T12:38:26.006Z,534.38
2019-05-26T12:39:26.135Z,551.25
2019-05-26T12:40:26.284Z,545.62
2019-05-26T12:41:27.153Z,517.50
2019-05-26T12:42:26.614Z,506.25
2019-05-26T12:43:27.663Z,534.38
2019-05-26T12:44:26.881Z,528.75
2019-05-26T12:45:27.176Z,478.12
2019-05-26T12:46:27.162Z,450.00